createdAt,value
2023-04-29T00:04:17.367Z,60.84
2023-04-29T00:09:25.989Z,60.86
2023-04-29T00:14:33.641Z,60.87
2023-04-29T00:19:41.608Z,60.91
2023-04-29T00:24:49.277Z,60.94
2023-04-29T00:29:57.549Z,60.98
2023-04-29T00:35:06.425Z,60.98
2023-04-29T00:40:15.714Z,60.98
2023-04-29T00:45:24.237Z,60.99
2023-04-29T00:50:32.611Z,60.99
2023-04-29T00:55:41.150Z,60.98
2023-04-29T01:00:50.019Z,61.02
2023-04-29T01:06:07.573Z,61.04
2023-04-29T01:11:18.020Z,61.04
2023-04-29T01:16:33.292Z,61.07
2023-04-29T01:21:51.360Z,61.07
2023-04-29T01:27:06.044Z,61.12
2023-04-29T01:32:33.340Z,61.12
2023-04-29T01:37:51.517Z,61.12
2023-04-29T01:43:04.959Z,61.12
2023-04-29T01:48:14.778Z,61.13
2023-04-29T01:53:23.316Z,61.14
2023-04-29T01:58:32.357Z,61.15
2023-04-29T02:04:00.326Z,61.10
2023-04-29T02:09:08.287Z,61.24
2023-04-29T02:14:17.871Z,61.39
2023-04-29T02:19:27.699Z,61.46
2023-04-29T02:24:37.290Z,61.53
2023-04-29T02:29:45.564Z,61.58
2023-04-29T02:34:54.073Z,61.58
2023-04-29T02:40:02.999Z,61.57
2023-04-29T02:45:13.908Z,61.58
2023-04-29T02:50:22.408Z,61.63
2023-04-29T02:55:31.213Z,61.68
2023-04-29T03:00:44.279Z,61.69
2023-04-29T03:05:51.502Z,61.70
2023-04-29T03:10:59.627Z,61.75
2023-04-29T03:16:08.985Z,61.78
2023-04-29T03:21:18.039Z,61.82
2023-04-29T03:26:26.679Z,61.90
2023-04-29T03:31:35.681Z,63.50
2023-04-29T03:36:42.961Z,64.40
2023-04-29T03:41:52.523Z,64.35
2023-04-29T03:47:01.339Z,63.74
2023-04-29T03:52:09.533Z,63.66
2023-04-29T03:57:18.106Z,63.59
2023-04-29T04:02:27.049Z,63.42
2023-04-29T04:07:35.549Z,63.29
2023-04-29T04:13:13.644Z,63.25
2023-04-29T04:18:21.301Z,63.01
2023-04-29T04:23:29.222Z,62.89
2023-04-29T04:28:38.018Z,62.81
2023-04-29T04:34:02.710Z,62.80
2023-04-29T04:39:12.007Z,62.71
2023-04-29T04:44:20.394Z,62.70
2023-04-29T04:49:37.496Z,62.64
2023-04-29T04:54:48.715Z,62.65
2023-04-29T04:59:59.593Z,62.68
2023-04-29T05:05:09.021Z,62.74
2023-04-29T05:10:18.257Z,62.81
2023-04-29T05:15:30.010Z,62.89
2023-04-29T05:20:40.439Z,62.83
2023-04-29T05:25:48.188Z,62.72
2023-04-29T05:30:58.170Z,62.71
2023-04-29T05:36:07.125Z,62.60
2023-04-29T05:41:15.821Z,62.47
2023-04-29T05:46:37.579Z,62.33
2023-04-29T05:51:45.971Z,62.13
2023-04-29T05:56:54.446Z,61.85
2023-04-29T06:02:02.916Z,61.53
2023-04-29T06:07:13.197Z,61.23
2023-04-29T06:12:39.250Z,61.01
2023-04-29T06:17:46.644Z,60.75
2023-04-29T06:22:55.323Z,60.77
2023-04-29T06:28:08.884Z,60.55
2023-04-29T06:33:21.410Z,60.25
2023-04-29T06:38:30.805Z,58.83
2023-04-29T06:43:58.316Z,58.33
2023-04-29T06:49:38.345Z,58.63
2023-04-29T06:54:47.404Z,58.83
2023-04-29T06:59:56.196Z,58.95
2023-04-29T07:05:06.834Z,58.92
2023-04-29T07:10:15.670Z,58.62
2023-04-29T07:15:23.971Z,58.36
2023-04-29T07:20:32.021Z,58.19
2023-04-29T07:25:40.856Z,57.89
2023-04-29T07:30:50.390Z,57.68
2023-04-29T07:35:59.243Z,57.28
2023-04-29T07:41:08.027Z,56.94
2023-04-29T07:46:16.764Z,56.38
2023-04-29T07:51:25.799Z,56.16
2023-04-29T07:56:35.280Z,55.93
2023-04-29T08:01:44.144Z,55.29
2023-04-29T08:06:53.890Z,54.75
2023-04-29T08:12:02.203Z,54.70
2023-04-29T08:17:10.352Z,54.49
2023-04-29T08:22:18.579Z,54.35
2023-04-29T08:27:26.471Z,53.90
2023-04-29T08:32:35.658Z,53.47
2023-04-29T08:37:43.539Z,53.08
2023-04-29T08:42:52.433Z,52.54
2023-04-29T08:48:03.141Z,51.99
2023-04-29T08:53:11.813Z,51.34
2023-04-29T08:58:21.228Z,50.68
2023-04-29T09:03:33.741Z,50.14
2023-04-29T09:08:42.558Z,50.16
2023-04-29T09:13:50.531Z,50.22
2023-04-29T09:18:58.848Z,50.16
2023-04-29T09:24:08.077Z,50.13
2023-04-29T09:29:16.696Z,50.03
2023-04-29T09:34:36.196Z,49.75
2023-04-29T09:39:44.006Z,49.96
2023-04-29T09:44:52.696Z,49.52
2023-04-29T09:50:16.798Z,48.97
2023-04-29T09:55:24.369Z,48.81
2023-04-29T10:00:35.935Z,48.72
2023-04-29T10:05:44.377Z,48.61
2023-04-29T10:10:58.223Z,48.27
2023-04-29T10:16:17.720Z,47.96
2023-04-29T10:21:30.370Z,47.82
2023-04-29T10:26:41.299Z,47.48
2023-04-29T10:31:51.046Z,47.18
2023-04-29T10:36:59.648Z,46.78
2023-04-29T10:42:18.196Z,46.48
2023-04-29T10:47:26.402Z,46.22
2023-04-29T10:52:53.484Z,46.05
2023-04-29T10:58:01.301Z,45.98
2023-04-29T11:03:10.988Z,45.69
2023-04-29T11:08:24.634Z,45.50
2023-04-29T11:13:34.439Z,45.48
2023-04-29T11:19:08.734Z,45.37
2023-04-29T11:24:19.929Z,45.45
2023-04-29T11:29:28.485Z,45.38
2023-04-29T11:34:36.108Z,45.08
2023-04-29T11:39:43.945Z,44.70
2023-04-29T11:44:53.473Z,44.76
2023-04-29T11:50:10.135Z,44.72
2023-04-29T11:55:18.004Z,44.26
2023-04-29T12:00:26.424Z,43.91
2023-04-29T12:05:34.489Z,43.92
2023-04-29T12:10:42.494Z,44.07
2023-04-29T12:15:50.867Z,44.02
2023-04-29T12:20:59.205Z,43.72
2023-04-29T12:26:08.528Z,43.41
2023-04-29T12:31:18.794Z,43.30
2023-04-29T12:36:27.570Z,43.00
2023-04-29T12:41:45.157Z,42.85
2023-04-29T12:46:54.211Z,42.59
2023-04-29T12:52:03.241Z,42.98
2023-04-29T12:57:11.456Z,42.25
2023-04-29T13:02:19.833Z,42.01
2023-04-29T13:07:27.509Z,41.69
2023-04-29T13:12:34.865Z,41.34
2023-04-29T13:17:42.457Z,40.99
2023-04-29T13:22:50.694Z,40.60
2023-04-29T13:27:58.856Z,40.67
2023-04-29T13:33:12.421Z,40.68
2023-04-29T13:38:21.042Z,40.70
2023-04-29T13:43:37.546Z,40.42
2023-04-29T13:54:48.388Z,40.48
2023-04-29T14:04:34.525Z,40.32
2023-04-29T14:09:42.071Z,40.12
2023-04-29T14:14:49.928Z,40.03
2023-04-29T14:19:57.791Z,39.78
2023-04-29T14:25:05.952Z,39.60
2023-04-29T14:30:15.277Z,39.57
2023-04-29T14:35:23.540Z,39.78
2023-04-29T14:40:31.646Z,39.85
2023-04-29T14:45:39.475Z,39.79
2023-04-29T14:50:47.222Z,39.64
2023-04-29T14:55:55.050Z,39.78
2023-04-29T15:01:03.107Z,39.81
2023-04-29T15:06:10.910Z,39.78
2023-04-29T15:11:18.556Z,39.70
2023-04-29T15:16:26.088Z,39.55
2023-04-29T15:21:34.868Z,39.34
2023-04-29T15:26:42.747Z,39.27
2023-04-29T15:31:50.267Z,39.41
2023-04-29T15:36:57.888Z,39.54
2023-04-29T15:42:05.379Z,39.65
2023-04-29T15:47:13.535Z,39.76
2023-04-29T15:52:21.149Z,39.84
2023-04-29T15:57:28.833Z,39.90
2023-04-29T16:02:36.392Z,39.93
2023-04-29T16:07:43.869Z,39.99
2023-04-29T16:12:51.298Z,40.08
2023-04-29T16:18:00.222Z,40.14
2023-04-29T16:23:07.784Z,40.12
2023-04-29T16:28:15.142Z,40.14
2023-04-29T16:33:22.632Z,40.03
2023-04-29T16:38:31.250Z,40.10
2023-04-29T16:43:38.708Z,40.12
2023-04-29T16:48:46.372Z,40.24
2023-04-29T16:53:55.205Z,40.36
2023-04-29T16:59:02.646Z,40.52
2023-04-29T17:04:10.827Z,40.48
2023-04-29T17:09:18.669Z,40.43
2023-04-29T17:14:26.779Z,40.52
2023-04-29T17:19:34.987Z,40.51
2023-04-29T17:24:45.390Z,40.54
2023-04-29T17:29:54.025Z,40.57
2023-04-29T17:35:02.757Z,40.59
2023-04-29T17:40:12.253Z,40.61
2023-04-29T17:45:20.147Z,40.66
2023-04-29T17:50:28.497Z,40.73
2023-04-29T17:55:36.395Z,40.75
2023-04-29T18:00:43.861Z,40.81
2023-04-29T18:05:51.510Z,40.99
2023-04-29T18:10:59.178Z,41.11
2023-04-29T18:16:07.710Z,41.15
2023-04-29T18:21:21.471Z,41.26
2023-04-29T18:26:30.331Z,41.32
2023-04-29T18:31:37.850Z,41.49
2023-04-29T18:36:45.622Z,41.63
2023-04-29T18:41:53.750Z,41.70
2023-04-29T18:47:01.257Z,41.86
2023-04-29T18:52:09.243Z,42.02
2023-04-29T18:57:17.160Z,42.10
2023-04-29T19:02:25.088Z,42.22
2023-04-29T19:07:33.153Z,42.38
2023-04-29T19:12:40.517Z,42.49
2023-04-29T19:17:48.395Z,42.64
2023-04-29T19:22:57.512Z,42.80
2023-04-29T19:28:04.841Z,42.91
2023-04-29T19:33:12.810Z,43.07
2023-04-29T19:38:20.938Z,43.20
2023-04-29T19:43:28.328Z,43.35
2023-04-29T19:48:36.146Z,43.49
2023-04-29T19:53:44.507Z,43.60
2023-04-29T19:58:52.413Z,43.73
2023-04-29T20:04:00.590Z,43.87
2023-04-29T20:09:09.911Z,44.00
2023-04-29T20:14:17.276Z,44.14
2023-04-29T20:19:24.855Z,44.29
2023-04-29T20:24:32.396Z,44.36
2023-04-29T20:29:40.007Z,44.48
2023-04-29T20:34:47.493Z,44.64
2023-04-29T20:39:55.215Z,44.79
2023-04-29T20:45:03.573Z,44.96
2023-04-29T20:50:12.583Z,45.10
2023-04-29T20:55:20.273Z,45.26
2023-04-29T21:00:27.643Z,45.41
2023-04-29T21:05:35.236Z,45.58
2023-04-29T21:10:42.981Z,45.76
2023-04-29T21:15:50.750Z,45.98
2023-04-29T21:20:58.398Z,46.16
2023-04-29T21:26:06.429Z,46.37
2023-04-29T21:31:16.693Z,46.52
2023-04-29T21:36:24.333Z,46.69
2023-04-29T21:41:35.127Z,46.85
2023-04-29T21:46:43.108Z,46.99
2023-04-29T21:51:51.298Z,47.15
2023-04-29T21:56:58.876Z,47.36
2023-04-29T22:02:15.399Z,47.55
2023-04-29T22:07:24.405Z,47.82
2023-04-29T22:12:31.827Z,48.09
2023-04-29T22:17:39.499Z,48.40
2023-04-29T22:22:46.862Z,48.78
2023-04-29T22:27:54.517Z,49.35
2023-04-29T22:33:02.199Z,50.04
2023-04-29T22:38:10.062Z,50.75
2023-04-29T22:43:17.659Z,51.55
2023-04-29T22:48:27.659Z,52.16
2023-04-29T22:53:35.664Z,52.74
2023-04-29T22:58:43.439Z,53.26
2023-04-29T23:03:51.024Z,53.81
2023-04-29T23:08:58.458Z,54.28
2023-04-29T23:14:06.153Z,54.72
2023-04-29T23:19:13.497Z,55.18
2023-04-29T23:24:20.937Z,55.67
2023-04-29T23:29:28.397Z,56.14
2023-04-29T23:34:35.977Z,56.75
2023-04-29T23:39:43.429Z,57.23
2023-04-29T23:44:51.322Z,57.73
2023-04-29T23:49:58.995Z,58.24
2023-04-29T23:55:07.331Z,58.86
